sensor_id;sensor_type;location;lat;lon;timestamp;temperature;humidity
6421;DHT22;3243;50.958;7.012;2023-12-14T00:03:43;9.20;99.90
6421;DHT22;3243;50.958;7.012;2023-12-14T00:06:11;9.20;99.90
6421;DHT22;3243;50.958;7.012;2023-12-14T00:11:10;9.10;99.90
6421;DHT22;3243;50.958;7.012;2023-12-14T00:16:05;9.10;99.90
6421;DHT22;3243;50.958;7.012;2023-12-14T00:23:27;9.00;99.90
6421;DHT22;3243;50.958;7.012;2023-12-14T00:25:54;9.00;99.90
6421;DHT22;3243;50.958;7.012;2023-12-14T00:30:48;9.10;99.90
6421;DHT22;3243;50.958;7.012;2023-12-14T00:35:42;9.00;99.90
6421;DHT22;3243;50.958;7.012;2023-12-14T00:40:36;9.00;99.90
6421;DHT22;3243;50.958;7.012;2023-12-14T00:45:30;9.00;99.90
6421;DHT22;3243;50.958;7.012;2023-12-14T00:47:56;8.90;99.90
6421;DHT22;3243;50.958;7.012;2023-12-14T00:52:50;8.90;99.90
6421;DHT22;3243;50.958;7.012;2023-12-14T00:57:44;8.90;99.90
6421;DHT22;3243;50.958;7.012;2023-12-14T01:07:34;8.90;99.90
6421;DHT22;3243;50.958;7.012;2023-12-14T01:10:00;9.00;99.90
6421;DHT22;3243;50.958;7.012;2023-12-14T01:19:49;9.00;99.90
6421;DHT22;3243;50.958;7.012;2023-12-14T01:27:10;9.10;99.90
6421;DHT22;3243;50.958;7.012;2023-12-14T01:32:07;9.00;99.90
6421;DHT22;3243;50.958;7.012;2023-12-14T01:34:35;9.00;99.90
6421;DHT22;3243;50.958;7.012;2023-12-14T01:39:29;9.00;99.90
6421;DHT22;3243;50.958;7.012;2023-12-14T01:44:23;9.00;99.90
6421;DHT22;3243;50.958;7.012;2023-12-14T01:51:44;8.90;99.90
6421;DHT22;3243;50.958;7.012;2023-12-14T01:56:38;8.90;99.90
6421;DHT22;3243;50.958;7.012;2023-12-14T02:01:43;5.50;99.90
6421;DHT22;3243;50.958;7.012;2023-12-14T02:04:12;8.90;99.90
6421;DHT22;3243;50.958;7.012;2023-12-14T02:06:39;8.90;99.90
6421;DHT22;3243;50.958;7.012;2023-12-14T02:11:33;8.90;99.90
6421;DHT22;3243;50.958;7.012;2023-12-14T02:14:09;8.90;99.90
6421;DHT22;3243;50.958;7.012;2023-12-14T02:16:36;8.90;99.90
6421;DHT22;3243;50.958;7.012;2023-12-14T02:19:05;8.90;99.90
6421;DHT22;3243;50.958;7.012;2023-12-14T02:21:32;8.90;99.90
6421;DHT22;3243;50.958;7.012;2023-12-14T02:23:59;8.90;99.90
6421;DHT22;3243;50.958;7.012;2023-12-14T02:26:26;8.90;99.90
6421;DHT22;3243;50.958;7.012;2023-12-14T02:41:10;8.90;99.90
6421;DHT22;3243;50.958;7.012;2023-12-14T02:50:59;8.80;99.90
6421;DHT22;3243;50.958;7.012;2023-12-14T02:55:56;8.80;99.90
6421;DHT22;3243;50.958;7.012;2023-12-14T03:00:50;8.70;99.90
6421;DHT22;3243;50.958;7.012;2023-12-14T03:13:05;8.50;99.90
6421;DHT22;3243;50.958;7.012;2023-12-14T03:15:32;8.40;99.90
6421;DHT22;3243;50.958;7.012;2023-12-14T03:17:59;8.40;99.90
6421;DHT22;3243;50.958;7.012;2023-12-14T03:20:26;8.40;99.90
6421;DHT22;3243;50.958;7.012;2023-12-14T03:22:52;8.30;99.90
6421;DHT22;3243;50.958;7.012;2023-12-14T03:27:48;8.30;99.90
6421;DHT22;3243;50.958;7.012;2023-12-14T03:32:42;8.20;99.90
6421;DHT22;3243;50.958;7.012;2023-12-14T03:37:36;8.20;99.90
6421;DHT22;3243;50.958;7.012;2023-12-14T03:40:04;8.20;99.90
6421;DHT22;3243;50.958;7.012;2023-12-14T03:49:52;8.20;99.90
6421;DHT22;3243;50.958;7.012;2023-12-14T03:52:19;8.20;99.90
6421;DHT22;3243;50.958;7.012;2023-12-14T03:54:46;8.10;99.90
6421;DHT22;3243;50.958;7.012;2023-12-14T03:57:13;8.00;99.90
6421;DHT22;3243;50.958;7.012;2023-12-14T04:02:07;8.10;99.90
6421;DHT22;3243;50.958;7.012;2023-12-14T04:04:34;8.10;99.90
6421;DHT22;3243;50.958;7.012;2023-12-14T04:07:01;8.10;99.90
6421;DHT22;3243;50.958;7.012;2023-12-14T04:11:55;8.00;99.90
6421;DHT22;3243;50.958;7.012;2023-12-14T04:16:49;8.10;99.90
6421;DHT22;3243;50.958;7.012;2023-12-14T04:24:44;7.90;99.90
6421;DHT22;3243;50.958;7.012;2023-12-14T04:27:34;7.90;99.90
6421;DHT22;3243;50.958;7.012;2023-12-14T04:33:14;7.90;99.90
6421;DHT22;3243;50.958;7.012;2023-12-14T04:35:56;7.90;99.90
6421;DHT22;3243;50.958;7.012;2023-12-14T04:38:45;7.90;99.90
6421;DHT22;3243;50.958;7.012;2023-12-14T04:41:29;7.90;99.90
6421;DHT22;3243;50.958;7.012;2023-12-14T04:44:29;7.90;99.90
6421;DHT22;3243;50.958;7.012;2023-12-14T04:46:57;7.90;99.90
6421;DHT22;3243;50.958;7.012;2023-12-14T04:49:24;7.90;99.90
6421;DHT22;3243;50.958;7.012;2023-12-14T04:51:56;7.90;99.90
6421;DHT22;3243;50.958;7.012;2023-12-14T04:57:20;7.80;99.90
6421;DHT22;3243;50.958;7.012;2023-12-14T05:02:17;7.60;99.90
6421;DHT22;3243;50.958;7.012;2023-12-14T05:09:57;7.70;99.90
6421;DHT22;3243;50.958;7.012;2023-12-14T05:14:56;7.60;99.90
6421;DHT22;3243;50.958;7.012;2023-12-14T05:24:50;7.50;99.90
6421;DHT22;3243;50.958;7.012;2023-12-14T05:32:33;7.50;99.90
6421;DHT22;3243;50.958;7.012;2023-12-14T05:35:14;7.50;99.90
6421;DHT22;3243;50.958;7.012;2023-12-14T05:37:40;7.50;99.90
6421;DHT22;3243;50.958;7.012;2023-12-14T05:42:44;7.50;99.90
6421;DHT22;3243;50.958;7.012;2023-12-14T05:45:10;7.40;99.90
6421;DHT22;3243;50.958;7.012;2023-12-14T05:50:13;7.40;99.90
6421;DHT22;3243;50.958;7.012;2023-12-14T05:52:46;7.40;99.90
6421;DHT22;3243;50.958;7.012;2023-12-14T06:00:38;7.40;99.90
6421;DHT22;3243;50.958;7.012;2023-12-14T06:03:06;7.60;99.90
6421;DHT22;3243;50.958;7.012;2023-12-14T06:05:33;7.50;99.90
6421;DHT22;3243;50.958;7.012;2023-12-14T06:08:05;7.50;99.90
6421;DHT22;3243;50.958;7.012;2023-12-14T06:10:46;7.40;99.90
6421;DHT22;3243;50.958;7.012;2023-12-14T06:13:44;7.50;99.90
6421;DHT22;3243;50.958;7.012;2023-12-14T06:16:22;7.50;99.90
6421;DHT22;3243;50.958;7.012;2023-12-14T06:19:03;7.50;99.90
6421;DHT22;3243;50.958;7.012;2023-12-14T06:21:43;7.40;99.90
6421;DHT22;3243;50.958;7.012;2023-12-14T06:29:25;7.40;99.90
6421;DHT22;3243;50.958;7.012;2023-12-14T06:34:43;7.20;99.90
6421;DHT22;3243;50.958;7.012;2023-12-14T06:39:51;7.20;99.90
6421;DHT22;3243;50.958;7.012;2023-12-14T06:42:20;7.20;99.90
6421;DHT22;3243;50.958;7.012;2023-12-14T06:52:23;7.10;99.90
6421;DHT22;3243;50.958;7.012;2023-12-14T06:57:19;7.10;99.90
6421;DHT22;3243;50.958;7.012;2023-12-14T06:59:56;7.20;99.90
6421;DHT22;3243;50.958;7.012;2023-12-14T07:05:04;7.10;99.90
6421;DHT22;3243;50.958;7.012;2023-12-14T07:07:37;7.20;99.90
6421;DHT22;3243;50.958;7.012;2023-12-14T07:15:09;7.30;99.90
6421;DHT22;3243;50.958;7.012;2023-12-14T07:20:12;7.30;99.90
6421;DHT22;3243;50.958;7.012;2023-12-14T07:25:41;7.20;99.90
6421;DHT22;3243;50.958;7.012;2023-12-14T07:30:48;7.20;99.90
6421;DHT22;3243;50.958;7.012;2023-12-14T07:38:14;7.20;99.90
6421;DHT22;3243;50.958;7.012;2023-12-14T07:43:11;7.10;99.90
6421;DHT22;3243;50.958;7.012;2023-12-14T07:50:36;7.10;99.90
6421;DHT22;3243;50.958;7.012;2023-12-14T07:58:14;7.10;99.90
6421;DHT22;3243;50.958;7.012;2023-12-14T08:00:44;6.80;99.90
6421;DHT22;3243;50.958;7.012;2023-12-14T08:03:11;6.90;99.90
6421;DHT22;3243;50.958;7.012;2023-12-14T08:08:07;7.00;99.90
6421;DHT22;3243;50.958;7.012;2023-12-14T08:13:10;6.90;99.90
6421;DHT22;3243;50.958;7.012;2023-12-14T08:18:04;6.90;99.90
6421;DHT22;3243;50.958;7.012;2023-12-14T08:22:59;6.90;99.90
6421;DHT22;3243;50.958;7.012;2023-12-14T08:30:31;6.90;99.90
6421;DHT22;3243;50.958;7.012;2023-12-14T08:40:29;6.80;99.90
6421;DHT22;3243;50.958;7.012;2023-12-14T08:50:31;6.90;99.90
6421;DHT22;3243;50.958;7.012;2023-12-14T08:55:35;6.80;99.90
6421;DHT22;3243;50.958;7.012;2023-12-14T08:58:20;6.90;99.90
6421;DHT22;3243;50.958;7.012;2023-12-14T09:00:57;6.90;99.90
6421;DHT22;3243;50.958;7.012;2023-12-14T09:08:24;6.80;99.90
6421;DHT22;3243;50.958;7.012;2023-12-14T09:13:18;6.80;99.90
6421;DHT22;3243;50.958;7.012;2023-12-14T09:18:14;6.90;99.90
6421;DHT22;3243;50.958;7.012;2023-12-14T09:23:14;6.90;99.90
6421;DHT22;3243;50.958;7.012;2023-12-14T09:25:41;6.90;99.90
6421;DHT22;3243;50.958;7.012;2023-12-14T09:28:11;6.90;99.90
6421;DHT22;3243;50.958;7.012;2023-12-14T09:30:40;6.90;99.90
6421;DHT22;3243;50.958;7.012;2023-12-14T09:38:04;6.80;99.90
6421;DHT22;3243;50.958;7.012;2023-12-14T09:45:38;6.80;99.90
6421;DHT22;3243;50.958;7.012;2023-12-14T09:53:10;6.80;99.90
6421;DHT22;3243;50.958;7.012;2023-12-14T09:55:38;6.80;99.90
6421;DHT22;3243;50.958;7.012;2023-12-14T10:00:37;6.80;99.90
6421;DHT22;3243;50.958;7.012;2023-12-14T10:03:34;6.80;99.90
6421;DHT22;3243;50.958;7.012;2023-12-14T10:06:04;6.90;99.90
6421;DHT22;3243;50.958;7.012;2023-12-14T10:13:39;6.70;99.90
6421;DHT22;3243;50.958;7.012;2023-12-14T10:16:26;6.70;99.90
6421;DHT22;3243;50.958;7.012;2023-12-14T10:33:58;6.70;99.90
6421;DHT22;3243;50.958;7.012;2023-12-14T10:36:25;6.70;99.90
6421;DHT22;3243;50.958;7.012;2023-12-14T10:38:57;6.70;99.90
6421;DHT22;3243;50.958;7.012;2023-12-14T10:41:24;6.70;99.90
6421;DHT22;3243;50.958;7.012;2023-12-14T10:43:56;6.70;99.90
6421;DHT22;3243;50.958;7.012;2023-12-14T10:46:44;6.70;99.90
6421;DHT22;3243;50.958;7.012;2023-12-14T10:49:13;6.70;99.90
6421;DHT22;3243;50.958;7.012;2023-12-14T10:51:40;6.70;99.90
6421;DHT22;3243;50.958;7.012;2023-12-14T10:54:09;6.70;99.90
6421;DHT22;3243;50.958;7.012;2023-12-14T11:01:32;6.50;99.90
6421;DHT22;3243;50.958;7.012;2023-12-14T11:06:36;6.50;99.90
6421;DHT22;3243;50.958;7.012;2023-12-14T11:11:43;6.50;99.90
6421;DHT22;3243;50.958;7.012;2023-12-14T11:14:13;6.40;99.90
6421;DHT22;3243;50.958;7.012;2023-12-14T11:16:41;6.60;99.90
6421;DHT22;3243;50.958;7.012;2023-12-14T11:22:12;6.70;99.90
6421;DHT22;3243;50.958;7.012;2023-12-14T11:24:52;6.70;99.90
6421;DHT22;3243;50.958;7.012;2023-12-14T11:27:25;6.70;99.90
6421;DHT22;3243;50.958;7.012;2023-12-14T11:29:54;6.70;99.90
6421;DHT22;3243;50.958;7.012;2023-12-14T11:34:55;6.70;99.90
6421;DHT22;3243;50.958;7.012;2023-12-14T11:39:50;6.60;99.90
6421;DHT22;3243;50.958;7.012;2023-12-14T11:42:18;6.60;99.90
6421;DHT22;3243;50.958;7.012;2023-12-14T11:44:45;6.50;99.90
6421;DHT22;3243;50.958;7.012;2023-12-14T11:52:06;6.60;99.90
6421;DHT22;3243;50.958;7.012;2023-12-14T11:54:37;6.60;99.90
6421;DHT22;3243;50.958;7.012;2023-12-14T11:57:04;6.50;99.90
6421;DHT22;3243;50.958;7.012;2023-12-14T11:59:31;6.50;99.90
6421;DHT22;3243;50.958;7.012;2023-12-14T12:02:00;6.50;99.90
6421;DHT22;3243;50.958;7.012;2023-12-14T12:04:27;6.60;99.90
6421;DHT22;3243;50.958;7.012;2023-12-14T12:07:05;6.50;99.90
6421;DHT22;3243;50.958;7.012;2023-12-14T12:09:36;6.50;99.90
6421;DHT22;3243;50.958;7.012;2023-12-14T12:12:10;6.60;99.90
6421;DHT22;3243;50.958;7.012;2023-12-14T12:17:16;6.50;99.90
6421;DHT22;3243;50.958;7.012;2023-12-14T12:19:47;6.50;99.90
6421;DHT22;3243;50.958;7.012;2023-12-14T12:22:14;6.60;99.90
6421;DHT22;3243;50.958;7.012;2023-12-14T12:32:07;6.60;99.90
6421;DHT22;3243;50.958;7.012;2023-12-14T12:39:28;6.60;99.90
6421;DHT22;3243;50.958;7.012;2023-12-14T12:41:55;6.60;99.90
6421;DHT22;3243;50.958;7.012;2023-12-14T12:56:52;6.80;99.90
6421;DHT22;3243;50.958;7.012;2023-12-14T12:59:19;6.90;99.90
6421;DHT22;3243;50.958;7.012;2023-12-14T13:01:46;6.80;99.90
6421;DHT22;3243;50.958;7.012;2023-12-14T13:04:19;6.80;99.90
6421;DHT22;3243;50.958;7.012;2023-12-14T13:06:49;6.80;99.90
6421;DHT22;3243;50.958;7.012;2023-12-14T13:09:17;6.80;99.90
6421;DHT22;3243;50.958;7.012;2023-12-14T13:11:45;6.80;99.90
6421;DHT22;3243;50.958;7.012;2023-12-14T13:14:12;6.70;99.90
6421;DHT22;3243;50.958;7.012;2023-12-14T13:19:08;6.70;99.90
6421;DHT22;3243;50.958;7.012;2023-12-14T13:29:00;6.70;99.90
6421;DHT22;3243;50.958;7.012;2023-12-14T13:31:27;6.80;99.90
6421;DHT22;3243;50.958;7.012;2023-12-14T13:33:54;6.80;99.90
6421;DHT22;3243;50.958;7.012;2023-12-14T13:36:21;6.70;99.90
6421;DHT22;3243;50.958;7.012;2023-12-14T13:46:10;6.70;99.90
6421;DHT22;3243;50.958;7.012;2023-12-14T13:51:14;6.70;99.90
6421;DHT22;3243;50.958;7.012;2023-12-14T14:01:05;6.60;99.90
6421;DHT22;3243;50.958;7.012;2023-12-14T14:03:35;6.60;99.90
6421;DHT22;3243;50.958;7.012;2023-12-14T14:06:02;6.60;99.90
6421;DHT22;3243;50.958;7.012;2023-12-14T14:13:26;6.40;99.90
6421;DHT22;3243;50.958;7.012;2023-12-14T14:15:58;6.40;99.90
6421;DHT22;3243;50.958;7.012;2023-12-14T14:25:51;6.50;99.90
6421;DHT22;3243;50.958;7.012;2023-12-14T14:28:21;6.60;99.90
6421;DHT22;3243;50.958;7.012;2023-12-14T14:30:51;6.60;99.90
6421;DHT22;3243;50.958;7.012;2023-12-14T14:50:32;6.40;99.90
6421;DHT22;3243;50.958;7.012;2023-12-14T14:52:59;6.30;99.90
6421;DHT22;3243;50.958;7.012;2023-12-14T14:55:26;6.40;99.90
6421;DHT22;3243;50.958;7.012;2023-12-14T15:07:47;6.30;99.90
6421;DHT22;3243;50.958;7.012;2023-12-14T15:10:14;6.30;99.90
6421;DHT22;3243;50.958;7.012;2023-12-14T15:17:45;6.30;99.90
6421;DHT22;3243;50.958;7.012;2023-12-14T15:32:38;5.90;99.90
6421;DHT22;3243;50.958;7.012;2023-12-14T15:40:00;6.00;99.90
6421;DHT22;3243;50.958;7.012;2023-12-14T15:54:46;6.10;99.90
6421;DHT22;3243;50.958;7.012;2023-12-14T16:12:03;6.00;99.90
6421;DHT22;3243;50.958;7.012;2023-12-14T16:14:31;6.10;99.90
6421;DHT22;3243;50.958;7.012;2023-12-14T16:16:58;6.00;99.90
6421;DHT22;3243;50.958;7.012;2023-12-14T16:21:52;6.00;99.90
6421;DHT22;3243;50.958;7.012;2023-12-14T16:29:28;5.40;99.90
6421;DHT22;3243;50.958;7.012;2023-12-14T16:39:17;6.00;99.90
6421;DHT22;3243;50.958;7.012;2023-12-14T16:41:44;5.90;99.90
6421;DHT22;3243;50.958;7.012;2023-12-14T16:46:46;6.10;99.90
6421;DHT22;3243;50.958;7.012;2023-12-14T16:54:09;6.00;99.90
6421;DHT22;3243;50.958;7.012;2023-12-14T16:56:36;5.90;99.90
6421;DHT22;3243;50.958;7.012;2023-12-14T17:01:40;5.90;99.90
6421;DHT22;3243;50.958;7.012;2023-12-14T17:04:08;5.90;99.90
6421;DHT22;3243;50.958;7.012;2023-12-14T17:09:02;5.90;99.90
6421;DHT22;3243;50.958;7.012;2023-12-14T17:11:29;5.90;99.90
6421;DHT22;3243;50.958;7.012;2023-12-14T17:21:25;6.00;99.90
6421;DHT22;3243;50.958;7.012;2023-12-14T17:26:21;6.00;99.90
6421;DHT22;3243;50.958;7.012;2023-12-14T17:28:54;6.00;99.90
6421;DHT22;3243;50.958;7.012;2023-12-14T17:31:22;5.90;99.90
6421;DHT22;3243;50.958;7.012;2023-12-14T17:33:51;6.10;99.90
6421;DHT22;3243;50.958;7.012;2023-12-14T17:41:13;6.10;99.90
6421;DHT22;3243;50.958;7.012;2023-12-14T17:46:14;6.10;99.90
6421;DHT22;3243;50.958;7.012;2023-12-14T17:56:06;6.00;99.90
6421;DHT22;3243;50.958;7.012;2023-12-14T18:18:21;5.90;99.90
6421;DHT22;3243;50.958;7.012;2023-12-14T18:20:51;5.80;99.90
6421;DHT22;3243;50.958;7.012;2023-12-14T18:23:20;5.80;99.90
6421;DHT22;3243;50.958;7.012;2023-12-14T18:25:47;5.70;99.90
6421;DHT22;3243;50.958;7.012;2023-12-14T18:28:16;5.70;99.90
6421;DHT22;3243;50.958;7.012;2023-12-14T18:38:07;5.40;99.90
6421;DHT22;3243;50.958;7.012;2023-12-14T18:45:29;5.40;99.90
6421;DHT22;3243;50.958;7.012;2023-12-14T18:50:23;5.40;99.90
6421;DHT22;3243;50.958;7.012;2023-12-14T19:05:20;5.60;99.90
6421;DHT22;3243;50.958;7.012;2023-12-14T19:07:53;5.60;99.90
6421;DHT22;3243;50.958;7.012;2023-12-14T19:10:26;5.60;99.90
6421;DHT22;3243;50.958;7.012;2023-12-14T19:12:54;5.70;99.90
6421;DHT22;3243;50.958;7.012;2023-12-14T19:17:49;5.70;99.90
6421;DHT22;3243;50.958;7.012;2023-12-14T19:20:18;5.80;99.90
6421;DHT22;3243;50.958;7.012;2023-12-14T19:27:40;5.60;99.90
6421;DHT22;3243;50.958;7.012;2023-12-14T19:30:13;5.60;99.90
6421;DHT22;3243;50.958;7.012;2023-12-14T19:37:39;5.40;99.90
6421;DHT22;3243;50.958;7.012;2023-12-14T19:42:34;5.40;99.90
6421;DHT22;3243;50.958;7.012;2023-12-14T19:45:07;5.40;99.90
6421;DHT22;3243;50.958;7.012;2023-12-14T19:47:36;5.50;99.90
6421;DHT22;3243;50.958;7.012;2023-12-14T19:50:07;5.50;99.90
6421;DHT22;3243;50.958;7.012;2023-12-14T19:52:46;5.50;99.90
6421;DHT22;3243;50.958;7.012;2023-12-14T20:05:06;5.60;99.90
6421;DHT22;3243;50.958;7.012;2023-12-14T20:10:01;5.70;99.90
6421;DHT22;3243;50.958;7.012;2023-12-14T20:17:25;5.70;99.90
6421;DHT22;3243;50.958;7.012;2023-12-14T20:24:47;5.70;99.90
6421;DHT22;3243;50.958;7.012;2023-12-14T20:29:43;5.80;99.90
6421;DHT22;3243;50.958;7.012;2023-12-14T20:32:09;5.70;99.90
6421;DHT22;3243;50.958;7.012;2023-12-14T20:46:58;5.80;99.90
6421;DHT22;3243;50.958;7.012;2023-12-14T20:59:14;5.80;99.90
6421;DHT22;3243;50.958;7.012;2023-12-14T21:01:43;5.80;99.90
6421;DHT22;3243;50.958;7.012;2023-12-14T21:06:37;5.80;99.90
6421;DHT22;3243;50.958;7.012;2023-12-14T21:11:39;5.90;99.90
6421;DHT22;3243;50.958;7.012;2023-12-14T21:14:06;5.90;99.90
6421;DHT22;3243;50.958;7.012;2023-12-14T21:21:47;5.90;99.90
6421;DHT22;3243;50.958;7.012;2023-12-14T21:29:37;6.00;99.90
6421;DHT22;3243;50.958;7.012;2023-12-14T21:32:04;6.00;99.90
6421;DHT22;3243;50.958;7.012;2023-12-14T21:37:03;6.00;99.90
6421;DHT22;3243;50.958;7.012;2023-12-14T21:41:57;6.00;99.90
6421;DHT22;3243;50.958;7.012;2023-12-14T21:44:24;6.00;99.90
6421;DHT22;3243;50.958;7.012;2023-12-14T21:46:51;6.00;99.90
6421;DHT22;3243;50.958;7.012;2023-12-14T21:51:47;6.00;99.90
6421;DHT22;3243;50.958;7.012;2023-12-14T21:56:47;6.10;99.90
6421;DHT22;3243;50.958;7.012;2023-12-14T21:59:14;6.00;99.90
6421;DHT22;3243;50.958;7.012;2023-12-14T22:01:44;6.10;99.90
6421;DHT22;3243;50.958;7.012;2023-12-14T22:09:06;6.10;99.90
6421;DHT22;3243;50.958;7.012;2023-12-14T22:26:16;6.20;99.90
6421;DHT22;3243;50.958;7.012;2023-12-14T22:31:10;6.20;99.90
6421;DHT22;3243;50.958;7.012;2023-12-14T22:33:37;6.10;99.90
6421;DHT22;3243;50.958;7.012;2023-12-14T22:36:04;6.20;99.90
6421;DHT22;3243;50.958;7.012;2023-12-14T22:40:59;6.20;99.90
6421;DHT22;3243;50.958;7.012;2023-12-14T22:45:53;6.10;99.90
6421;DHT22;3243;50.958;7.012;2023-12-14T22:50:47;6.00;99.90
6421;DHT22;3243;50.958;7.012;2023-12-14T22:58:19;5.90;99.90
6421;DHT22;3243;50.958;7.012;2023-12-14T23:08:07;5.90;99.90
6421;DHT22;3243;50.958;7.012;2023-12-14T23:15:28;5.80;99.90
6421;DHT22;3243;50.958;7.012;2023-12-14T23:20:22;5.90;99.90
6421;DHT22;3243;50.958;7.012;2023-12-14T23:22:53;5.90;99.90
6421;DHT22;3243;50.958;7.012;2023-12-14T23:30:14;5.80;99.90
6421;DHT22;3243;50.958;7.012;2023-12-14T23:35:09;5.80;99.90
6421;DHT22;3243;50.958;7.012;2023-12-14T23:40:04;5.80;99.90
6421;DHT22;3243;50.958;7.012;2023-12-14T23:42:31;5.80;99.90
6421;DHT22;3243;50.958;7.012;2023-12-14T23:44:57;5.70;99.90
6421;DHT22;3243;50.958;7.012;2023-12-14T23:52:19;5.40;99.90
6421;DHT22;3243;50.958;7.012;2023-12-14T23:59:40;5.30;99.90
